Time;durP1;ratioP1;P1;durP2;ratioP2;P2;SDS_P1;SDS_P2;PMS_P1;PMS_P2;Temp;Humidity;BMP_temperature;BMP_pressure;BME280_temperature;BME280_humidity;BME280_pressure;Samples;Min_cycle;Max_cycle;Signal;HPM_P1;HPM_P2
2022/06/22 00:02:18;;;;;;;5.57;2.50;;;18.40;97.40;;;19.41;93.69;97683.72;5063667;28;20961;-75
2022/06/22 00:04:54;;;;;;;5.53;2.37;;;18.40;97.20;;;19.34;94.00;97680.47;5059920;28;20475;-75
2022/06/22 00:07:29;;;;;;;3.93;2.80;;;18.40;97.10;;;19.31;94.55;97680.97;5064552;28;20996;-75
2022/06/22 00:10:09;;;;;;;4.40;2.70;;;18.40;97.20;;;19.27;94.90;97679.88;5066234;28;20990;-75
2022/06/22 00:12:40;;;;;;;6.93;2.40;;;18.30;97.40;;;19.23;95.29;97677.97;5065914;28;20440;-75
2022/06/22 00:15:33;;;;;;;9.00;2.43;;;18.30;97.60;;;19.20;96.27;97683.75;5065729;28;20456;-74
2022/06/22 00:18:23;;;;;;;4.23;2.50;;;18.20;97.60;;;19.14;96.05;97682.13;5068977;28;20833;-75
2022/06/22 00:20:59;;;;;;;5.40;2.70;;;18.20;97.50;;;19.08;96.66;97683.94;5063583;28;20559;-74
2022/06/22 00:23:38;;;;;;;3.87;2.63;;;18.20;97.50;;;19.05;97.04;97679.91;5065456;28;20475;-74
2022/06/22 00:26:19;;;;;;;3.27;2.57;;;18.10;97.60;;;18.98;97.93;97674.03;5063361;28;20460;-75
2022/06/22 00:29:19;;;;;;;7.10;2.77;;;18.10;97.80;;;18.91;98.60;97683.22;5063387;28;20464;-75
2022/06/22 00:32:14;;;;;;;2.93;2.33;;;18.10;97.70;;;18.95;98.76;97681.69;5060285;28;20527;-75
2022/06/22 00:34:43;;;;;;;4.33;2.43;;;18.00;97.80;;;18.89;98.58;97678.16;5064208;28;20485;-75
2022/06/22 00:37:21;;;;;;;4.97;2.47;;;18.00;98.00;;;18.89;98.62;97677.34;5059350;28;20457;-75
2022/06/22 00:39:55;;;;;;;3.70;2.30;;;18.00;97.90;;;18.83;99.16;97673.06;5061925;28;20505;-74
2022/06/22 00:42:33;;;;;;;4.17;2.90;;;18.00;98.00;;;18.84;99.54;97672.03;5062994;28;20469;-75
2022/06/22 00:45:09;;;;;;;5.67;2.97;;;17.90;98.20;;;18.81;99.60;97667.22;5062892;28;20559;-75
2022/06/22 00:47:45;;;;;;;2.90;2.33;;;17.90;98.10;;;18.78;99.70;97659.78;5062455;28;20556;-75
2022/06/22 00:50:27;;;;;;;2.87;2.27;;;17.80;98.10;;;18.74;100.00;97646.22;5061093;28;20515;-75
2022/06/22 00:53:12;;;;;;;4.60;2.50;;;17.90;98.10;;;18.69;100.00;97645.34;5062621;28;20597;-75
2022/06/22 00:55:51;;;;;;;2.90;2.43;;;17.80;98.10;;;18.58;100.00;97650.53;5061734;28;20824;-75
2022/06/22 00:58:36;;;;;;;3.63;2.57;;;17.70;98.20;;;18.55;100.00;97661.63;5061917;28;20471;-75
2022/06/22 01:01:18;;;;;;;4.20;2.60;;;17.60;98.40;;;18.54;100.00;97664.50;5062156;28;20491;-75
2022/06/22 01:03:59;;;;;;;7.53;2.30;;;17.60;98.40;;;18.53;100.00;97663.69;5064110;28;20468;-75
2022/06/22 01:06:43;;;;;;;7.80;2.73;;;17.60;98.50;;;18.53;100.00;97658.41;5062595;28;20492;-74
2022/06/22 01:09:28;;;;;;;11.63;2.60;;;17.60;98.60;;;18.54;100.00;97656.56;5062584;28;20465;-75
2022/06/22 01:12:22;;;;;;;2.63;2.33;;;17.60;98.70;;;18.49;100.00;97659.13;5059544;28;21326;-75
2022/06/22 01:15:19;;;;;;;7.30;2.83;;;17.50;98.70;;;18.45;100.00;97658.03;5061705;28;21065;-75
2022/06/22 01:18:02;;;;;;;4.37;3.10;;;17.50;98.90;;;18.38;100.00;97649.47;5061591;28;20539;-75
2022/06/22 01:20:51;;;;;;;3.97;2.50;;;17.50;98.50;;;18.34;100.00;97649.16;5062428;28;20894;-75
2022/06/22 01:23:59;;;;;;;3.40;2.60;;;17.50;98.50;;;18.26;100.00;97641.63;5062646;28;20861;-75
2022/06/22 01:27:22;;;;;;;5.70;2.73;;;17.50;98.50;;;18.26;100.00;97654.06;5062052;28;21179;-75
2022/06/22 01:29:55;;;;;;;3.00;2.30;;;17.40;98.80;;;18.21;100.00;97649.53;5057987;28;20476;-75
2022/06/22 01:32:29;;;;;;;2.50;2.20;;;17.30;98.90;;;18.15;100.00;97661.09;5058483;28;20522;-74
2022/06/22 01:35:10;;;;;;;7.40;3.00;;;17.30;98.90;;;18.12;100.00;97656.25;5061791;28;20827;-74
2022/06/22 01:37:42;;;;;;;9.30;2.77;;;17.30;99.00;;;18.07;100.00;97648.28;5058111;28;20551;-75
2022/06/22 01:40:18;;;;;;;2.80;2.30;;;17.20;99.10;;;18.09;100.00;97635.59;5060418;28;21057;-75
2022/06/22 01:42:57;;;;;;;8.03;2.60;;;17.20;99.30;;;18.10;100.00;97623.97;5061396;28;20549;-75
2022/06/22 01:45:40;;;;;;;4.43;2.70;;;17.10;99.30;;;18.07;100.00;97609.38;5058446;28;20507;-75
2022/06/22 01:48:22;;;;;;;2.70;2.30;;;17.20;99.00;;;18.05;100.00;97597.41;5062344;28;20524;-74
2022/06/22 01:51:01;;;;;;;4.27;2.63;;;17.10;99.30;;;18.02;100.00;97582.03;5060629;28;20552;-75
2022/06/22 01:53:38;;;;;;;4.67;2.70;;;17.10;99.20;;;17.95;100.00;97579.56;5059929;28;20463;-75
2022/06/22 01:56:21;;;;;;;3.93;2.70;;;17.00;99.40;;;17.94;100.00;97577.19;5061611;28;20467;-75
2022/06/22 01:59:04;;;;;;;4.13;3.00;;;16.90;99.40;;;17.94;100.00;97575.34;5060090;28;21030;-74
2022/06/22 02:01:43;;;;;;;3.00;2.40;;;16.90;99.70;;;17.93;100.00;97567.66;5060400;28;20465;-75
2022/06/22 02:04:44;;;;;;;7.50;2.83;;;16.90;99.50;;;17.93;100.00;97562.34;5059927;28;20467;-75
2022/06/22 02:10:34;;;;;;;8.43;2.67;;;16.90;99.40;;;17.87;100.00;97569.44;5061533;28;20457;-75
2022/06/22 02:13:22;;;;;;;5.77;2.90;;;16.90;99.50;;;17.85;100.00;97570.72;5061789;28;20463;-74
2022/06/22 02:16:04;;;;;;;3.27;2.50;;;17.00;99.50;;;17.84;100.00;97577.06;5058400;28;21502;-75
2022/06/22 02:18:43;;;;;;;4.30;2.73;;;16.90;99.50;;;17.83;100.00;97583.38;5060603;28;20486;-74
2022/06/22 02:21:23;;;;;;;4.30;3.77;;;16.90;99.80;;;17.82;100.00;97579.94;5063958;28;20507;-75
2022/06/22 02:24:03;;;;;;;3.77;2.67;;;16.90;99.50;;;17.77;100.00;97573.78;5061048;28;20464;-75
2022/06/22 02:26:40;;;;;;;5.60;2.57;;;16.90;99.50;;;17.80;100.00;97562.72;5061287;28;20455;-75
2022/06/22 02:29:12;;;;;;;5.87;2.90;;;16.80;99.80;;;17.79;100.00;97553.97;5060654;28;20832;-75
2022/06/22 02:31:46;;;;;;;5.23;3.10;;;16.80;99.80;;;17.75;100.00;97560.81;5061703;28;20559;-74
2022/06/22 02:34:18;;;;;;;7.13;2.63;;;16.80;99.60;;;17.71;100.00;97574.75;5062034;28;21224;-75
2022/06/22 02:36:53;;;;;;;8.23;2.87;;;16.80;99.70;;;17.67;100.00;97585.00;5058513;28;20461;-75
2022/06/22 02:39:26;;;;;;;3.20;2.50;;;16.80;99.60;;;17.65;100.00;97588.94;5058780;28;20487;-75
2022/06/22 02:44:47;;;;;;;3.73;2.53;;;16.80;99.70;;;17.66;100.00;97588.72;5061736;28;21255;-74
2022/06/22 02:47:29;;;;;;;5.23;2.67;;;16.80;99.80;;;17.60;100.00;97597.59;5063371;28;20482;-74
2022/06/22 02:50:07;;;;;;;2.70;2.30;;;16.70;99.80;;;17.52;100.00;97598.81;5062972;28;20507;-75
2022/06/22 02:52:44;;;;;;;4.20;2.63;;;16.70;99.70;;;17.48;100.00;97597.69;5061164;28;20509;-75
2022/06/22 02:55:17;;;;;;;4.10;2.70;;;16.60;99.90;;;17.49;100.00;97601.91;5061525;28;20566;-75
2022/06/22 02:57:58;;;;;;;4.20;2.77;;;16.60;99.70;;;17.44;100.00;97598.41;5064033;28;20483;-75
2022/06/22 03:00:35;;;;;;;5.10;2.40;;;16.60;99.90;;;17.41;100.00;97586.47;5061959;28;20518;-75
2022/06/22 03:03:11;;;;;;;3.93;2.43;;;16.60;99.90;;;17.44;100.00;97591.28;5061744;28;20448;-75
2022/06/22 03:05:45;;;;;;;7.23;2.70;;;16.50;99.90;;;17.46;100.00;97591.00;5063797;28;20876;-75
2022/06/22 03:08:18;;;;;;;3.53;2.60;;;16.50;99.90;;;17.45;100.00;97587.59;5059915;28;20861;-75
2022/06/22 03:10:53;;;;;;;5.47;3.07;;;16.50;99.90;;;17.39;100.00;97585.91;5058990;28;20459;-82
2022/06/22 03:13:30;;;;;;;3.60;2.63;;;16.50;99.90;;;17.40;100.00;97582.22;5062289;28;20547;-75
2022/06/22 03:16:02;;;;;;;3.20;2.63;;;16.50;99.90;;;17.38;100.00;97580.88;5061164;28;20460;-75
2022/06/22 03:18:40;;;;;;;18.90;8.03;;;16.50;99.90;;;17.27;100.00;97585.19;5064231;28;20460;-75
2022/06/22 03:21:14;;;;;;;3.90;2.67;;;16.50;99.90;;;17.29;100.00;97592.88;5059342;28;20954;-75
2022/06/22 03:23:53;;;;;;;7.00;2.40;;;16.50;99.90;;;17.34;100.00;97606.97;5059563;28;21544;-75
2022/06/22 03:26:29;;;;;;;3.80;2.50;;;16.40;99.90;;;17.38;100.00;97608.09;5058979;28;20507;-75
2022/06/22 03:29:14;;;;;;;3.30;3.00;;;16.40;99.90;;;17.36;100.00;97615.47;5059417;28;20498;-75
2022/06/22 03:31:52;;;;;;;2.80;2.50;;;16.50;99.90;;;17.33;100.00;97602.72;5057440;28;21240;-75
2022/06/22 03:34:30;;;;;;;3.20;2.53;;;16.50;99.90;;;17.28;100.00;97607.16;5061186;28;20459;-75
2022/06/22 03:37:09;;;;;;;23.20;10.80;;;16.50;99.90;;;17.24;100.00;97620.03;5060478;28;20459;-75
2022/06/22 03:39:48;;;;;;;5.33;3.00;;;16.40;99.90;;;17.21;100.00;97623.16;5062357;28;20556;-76
2022/06/22 03:42:24;;;;;;;4.17;2.60;;;16.40;99.90;;;17.21;100.00;97628.44;5064810;28;20980;-76
2022/06/22 03:45:04;;;;;;;5.93;2.80;;;16.40;99.90;;;17.22;100.00;97627.38;5065874;28;20476;-76
2022/06/22 03:47:46;;;;;;;3.80;2.60;;;16.30;99.90;;;17.24;100.00;97633.25;5065969;28;20472;-76
2022/06/22 03:50:27;;;;;;;5.47;3.10;;;16.30;99.90;;;17.23;100.00;97634.28;5065507;28;20491;-76
2022/06/22 03:53:12;;;;;;;11.93;4.10;;;16.30;99.90;;;17.16;100.00;97636.28;5068819;28;20455;-82
2022/06/22 03:55:48;;;;;;;4.83;3.47;;;16.40;99.90;;;17.20;100.00;97636.59;5065792;28;20535;-77
2022/06/22 03:58:20;;;;;;;3.83;2.70;;;16.30;99.90;;;17.23;100.00;97638.75;5062258;28;20459;-75
2022/06/22 04:00:51;;;;;;;3.07;2.30;;;16.30;99.90;;;17.23;100.00;97634.28;5065323;28;20456;-88
2022/06/22 04:03:21;;;;;;;3.30;2.50;;;16.30;99.90;;;17.21;100.00;97639.03;5064242;28;20973;-75
2022/06/22 04:05:58;;;;;;;4.20;2.83;;;16.30;99.90;;;17.23;100.00;97646.69;5064211;28;20523;-76
2022/06/22 04:08:32;;;;;;;5.90;3.10;;;16.30;99.90;;;17.21;100.00;97644.31;5062310;28;20470;-75
2022/06/22 04:11:13;;;;;;;7.30;2.80;;;16.30;99.90;;;17.20;100.00;97640.06;5062533;28;20459;-76
2022/06/22 04:14:00;;;;;;;11.53;2.43;;;16.30;99.90;;;17.26;100.00;97643.56;5066521;28;20897;-75
2022/06/22 04:16:38;;;;;;;6.47;2.63;;;16.30;99.90;;;17.19;100.00;97645.56;5065815;28;20482;-75
2022/06/22 04:19:15;;;;;;;3.03;2.67;;;16.40;99.90;;;17.20;100.00;97645.34;5066085;28;20456;-76
2022/06/22 04:21:51;;;;;;;4.30;3.00;;;16.30;99.90;;;17.22;100.00;97642.44;5066790;28;20456;-75
2022/06/22 04:24:27;;;;;;;6.00;3.30;;;16.40;99.90;;;17.25;100.00;97631.41;5066434;28;20465;-76
2022/06/22 04:27:07;;;;;;;3.77;3.00;;;16.30;99.90;;;17.29;100.00;97635.16;5067396;28;20495;-76
2022/06/22 04:29:47;;;;;;;3.90;2.80;;;16.30;99.90;;;17.31;100.00;97633.91;5068396;28;20456;-76
2022/06/22 04:32:23;;;;;;;3.00;2.43;;;16.40;99.90;;;17.33;100.00;97626.50;5065833;28;20559;-75
2022/06/22 04:35:00;;;;;;;3.30;1.93;;;16.40;99.90;;;17.34;100.00;97622.03;5068693;28;20454;-75
2022/06/22 04:37:51;;;;;;;3.13;2.53;;;16.40;99.90;;;17.36;100.00;97625.22;5066664;28;20452;-75
2022/06/22 04:40:31;;;;;;;3.40;2.60;;;16.40;99.90;;;17.36;100.00;97630.50;5066048;28;20453;-76
2022/06/22 04:43:05;;;;;;;5.70;2.53;;;16.50;99.90;;;17.36;100.00;97635.81;5066908;28;20888;-76
2022/06/22 04:45:41;;;;;;;6.77;2.90;;;16.40;99.90;;;17.35;100.00;97637.66;5067121;28;20529;-75
2022/06/22 04:48:21;;;;;;;4.93;2.87;;;16.50;99.90;;;17.36;100.00;97633.16;5065745;28;20456;-76
2022/06/22 04:50:58;;;;;;;6.63;2.23;;;16.50;99.90;;;17.41;100.00;97633.25;5064795;28;20515;-76
2022/06/22 04:53:35;;;;;;;2.80;2.10;;;16.50;99.90;;;17.44;100.00;97633.56;5063298;28;20456;-76
2022/06/22 04:56:10;;;;;;;3.10;2.20;;;16.50;99.90;;;17.49;100.00;97641.56;5065663;28;20468;-75
2022/06/22 04:58:46;;;;;;;4.40;2.47;;;16.50;99.90;;;17.50;100.00;97645.81;5067966;28;20455;-76
2022/06/22 05:01:23;;;;;;;2.57;2.27;;;16.60;99.90;;;17.54;100.00;97651.44;5065586;28;20453;-75
2022/06/22 05:03:58;;;;;;;2.87;2.20;;;16.60;99.90;;;17.56;100.00;97652.03;5065455;28;20463;-76
2022/06/22 05:06:41;;;;;;;3.00;2.13;;;16.70;99.90;;;17.56;100.00;97650.16;5066176;28;20491;-76
2022/06/22 05:09:24;;;;;;;3.00;2.07;;;16.70;99.90;;;17.58;100.00;97639.38;5065809;28;20464;-76
2022/06/22 05:11:55;;;;;;;6.27;2.40;;;16.70;99.90;;;17.65;100.00;97633.91;5067116;28;20444;-76
2022/06/22 05:14:31;;;;;;;2.90;2.50;;;16.70;99.90;;;17.71;100.00;97632.94;5065305;28;20452;-76
2022/06/22 05:17:05;;;;;;;4.03;2.23;;;16.80;99.90;;;17.75;100.00;97634.06;5066411;28;20454;-75
2022/06/22 05:19:56;;;;;;;3.30;2.10;;;16.80;99.90;;;17.78;100.00;97636.22;5066701;28;20444;-76
2022/06/22 05:22:25;;;;;;;3.30;2.27;;;16.80;99.90;;;17.81;100.00;97639.16;5066781;28;20486;-76
2022/06/22 05:25:01;;;;;;;5.23;2.17;;;16.90;99.90;;;17.85;100.00;97639.50;5065312;28;20445;-76
2022/06/22 05:27:57;;;;;;;2.90;2.33;;;16.90;99.90;;;17.89;100.00;97641.41;5065543;28;20587;-76
2022/06/22 05:30:35;;;;;;;3.90;3.00;;;16.90;99.90;;;17.90;100.00;97652.81;5065147;28;20437;-75
2022/06/22 05:33:14;;;;;;;3.80;3.03;;;17.00;99.90;;;17.94;100.00;97645.97;5065222;28;20993;-76
2022/06/22 05:35:50;;;;;;;3.00;2.30;;;17.10;99.80;;;17.96;100.00;97651.81;5065673;28;20444;-76
2022/06/22 05:38:21;;;;;;;2.30;1.97;;;17.10;99.60;;;17.99;100.00;97651.34;5063498;28;20507;-76
2022/06/22 05:40:54;;;;;;;3.93;2.30;;;17.10;99.50;;;18.07;100.00;97648.28;5061356;28;21016;-76
2022/06/22 05:43:28;;;;;;;9.27;2.00;;;17.10;99.90;;;18.13;100.00;97651.78;5061617;28;20565;-76
2022/06/22 05:46:02;;;;;;;3.17;2.40;;;17.20;99.70;;;18.15;100.00;97647.88;5061982;28;20441;-76
2022/06/22 05:48:41;;;;;;;3.50;2.50;;;17.30;99.70;;;18.23;100.00;97646.63;5061403;28;21042;-76
2022/06/22 05:51:18;;;;;;;2.90;2.10;;;17.40;99.70;;;18.31;100.00;97649.66;5061660;28;20465;-76
2022/06/22 05:53:54;;;;;;;4.53;2.40;;;17.40;99.50;;;18.36;100.00;97649.69;5061547;28;20490;-76
2022/06/22 05:56:41;;;;;;;2.23;2.03;;;17.40;99.30;;;18.44;100.00;97654.56;5061586;28;20476;-76
2022/06/22 05:59:22;;;;;;;3.10;2.10;;;17.50;99.30;;;18.50;100.00;97653.59;5063297;28;20488;-76
2022/06/22 06:02:03;;;;;;;2.60;2.10;;;17.70;99.50;;;18.55;100.00;97655.53;5064616;28;21032;-76
2022/06/22 06:04:40;;;;;;;3.10;2.50;;;17.70;99.20;;;18.60;100.00;97659.03;5066203;28;20931;-76
2022/06/22 06:07:20;;;;;;;3.53;2.17;;;17.70;99.10;;;18.68;100.00;97664.94;5065547;28;20865;-76
2022/06/22 06:09:50;;;;;;;6.93;2.57;;;17.80;98.90;;;18.73;100.00;97657.06;5065741;28;20817;-76
2022/06/22 06:12:34;;;;;;;7.33;1.97;;;17.90;98.90;;;18.79;100.00;97659.50;5062523;28;20465;-76
2022/06/22 06:15:08;;;;;;;4.07;3.17;;;17.90;99.10;;;18.83;100.00;97652.66;5064371;28;20463;-75
2022/06/22 06:17:49;;;;;;;3.30;2.43;;;18.10;99.20;;;18.89;100.00;97661.47;5065415;28;20466;-76
2022/06/22 06:20:25;;;;;;;3.53;1.90;;;18.10;99.10;;;18.96;100.00;97656.75;5065460;28;20945;-76
2022/06/22 06:23:04;;;;;;;4.40;2.37;;;18.10;99.00;;;19.02;100.00;97667.16;5065037;28;20437;-76
2022/06/22 06:28:39;;;;;;;4.17;2.27;;;18.20;99.40;;;19.14;100.00;97648.47;5064333;28;20460;-76
2022/06/22 06:31:20;;;;;;;6.20;2.43;;;18.20;99.40;;;19.21;100.00;97638.44;5065410;28;20436;-76
2022/06/22 06:33:52;;;;;;;2.60;2.07;;;18.30;99.70;;;19.27;100.00;97642.75;5064986;28;20498;-76
2022/06/22 06:36:29;;;;;;;2.27;2.00;;;18.30;99.70;;;19.33;100.00;97636.41;5064316;28;20440;-76
2022/06/22 06:39:05;;;;;;;2.10;1.80;;;18.40;99.60;;;19.35;100.00;97626.38;5065072;28;20435;-76
2022/06/22 06:41:42;;;;;;;3.13;2.37;;;18.50;99.30;;;19.40;100.00;97623.75;5063705;28;20977;-76
2022/06/22 06:44:20;;;;;;;6.60;2.40;;;18.60;98.90;;;19.44;100.00;97624.88;5066523;28;20488;-76
2022/06/22 06:46:53;;;;;;;3.47;2.20;;;18.60;98.80;;;19.50;100.00;97620.44;5065222;28;20478;-76
2022/06/22 06:49:52;;;;;;;6.80;2.00;;;18.60;98.90;;;19.53;100.00;97619.91;5064295;28;20861;-76
2022/06/22 06:52:33;;;;;;;4.37;2.00;;;18.70;98.70;;;19.57;95.73;97618.34;5063506;28;20459;-76
2022/06/22 06:55:18;;;;;;;6.00;1.70;;;18.80;97.70;;;19.64;93.91;97605.66;5063434;28;20441;-77
2022/06/22 06:58:07;;;;;;;2.53;1.97;;;18.80;97.20;;;19.72;93.24;97607.03;5060151;28;21446;-76
2022/06/22 07:00:39;;;;;;;3.23;2.00;;;18.90;97.30;;;19.80;93.27;97598.59;5061357;28;20883;-76
2022/06/22 07:03:20;;;;;;;3.07;1.90;;;19.00;97.40;;;19.84;92.68;97595.19;5060417;28;20440;-76
2022/06/22 07:05:51;;;;;;;1.63;1.43;;;19.00;97.10;;;19.91;89.91;97605.56;5059657;28;20947;-76
2022/06/22 07:08:31;;;;;;;3.30;2.20;;;19.10;96.70;;;19.97;88.58;97609.84;5059267;28;20492;-76
2022/06/22 07:11:19;;;;;;;2.43;1.63;;;19.10;96.20;;;20.05;89.46;97618.13;5058542;28;20452;-76
2022/06/22 07:13:54;;;;;;;2.03;1.70;;;19.20;97.10;;;20.13;89.79;97624.81;5061025;28;20449;-76
2022/06/22 07:16:26;;;;;;;4.60;2.37;;;19.30;96.90;;;20.17;88.41;97615.25;5062468;28;20460;-76
2022/06/22 07:19:03;;;;;;;6.80;2.03;;;19.40;96.50;;;20.24;88.14;97626.44;5063152;28;20441;-76
2022/06/22 07:21:41;;;;;;;5.20;2.40;;;19.40;96.20;;;20.29;85.33;97629.16;5062462;28;20444;-76
2022/06/22 07:24:22;;;;;;;2.30;2.00;;;19.50;95.70;;;20.36;84.63;97640.34;5063233;28;20440;-76
2022/06/22 07:27:01;;;;;;;2.50;1.90;;;19.60;95.80;;;20.43;84.56;97643.56;5068219;28;20525;-76
2022/06/22 07:29:43;;;;;;;1.83;1.37;;;19.60;95.80;;;20.49;85.44;97645.16;5067204;28;21023;-76
2022/06/22 07:32:22;;;;;;;2.77;2.10;;;19.70;96.00;;;20.55;85.18;97644.13;5067426;28;20460;-76
2022/06/22 07:35:01;;;;;;;3.30;2.23;;;19.80;96.30;;;20.63;84.98;97647.31;5068308;28;20845;-76
2022/06/22 07:37:37;;;;;;;4.80;2.03;;;19.80;95.60;;;20.70;84.10;97650.53;5068484;28;20445;-76
2022/06/22 07:40:15;;;;;;;3.70;2.47;;;19.90;95.60;;;20.78;84.14;97650.84;5067244;28;20469;-75
2022/06/22 07:42:52;;;;;;;1.70;1.50;;;20.00;95.60;;;20.84;85.11;97647.13;5066306;28;20436;-76
2022/06/22 07:45:25;;;;;;;2.27;1.97;;;20.00;96.40;;;20.92;86.00;97648.47;5066594;28;20440;-76
2022/06/22 07:48:02;;;;;;;4.20;2.10;;;20.10;96.40;;;20.99;85.02;97643.72;5067640;28;20484;-76
2022/06/22 07:50:37;;;;;;;4.47;1.80;;;20.20;96.10;;;21.06;83.08;97638.94;5067757;28;20463;-76
2022/06/22 07:53:23;;;;;;;2.70;1.77;;;20.40;95.60;;;21.14;81.30;97637.66;5068123;28;20444;-76
2022/06/22 07:56:01;;;;;;;3.73;2.67;;;20.50;94.90;;;21.27;82.00;97637.13;5069629;28;20446;-76
2022/06/22 07:58:38;;;;;;;8.37;2.13;;;20.60;95.40;;;21.37;81.97;97645.09;5065329;28;20962;-76
2022/06/22 08:01:12;;;;;;;5.03;2.20;;;20.70;95.40;;;21.46;79.62;97643.50;5064042;28;20479;-76
2022/06/22 08:03:49;;;;;;;3.43;2.13;;;20.80;94.60;;;21.51;77.35;97630.22;5064132;28;20449;-76
2022/06/22 08:06:27;;;;;;;3.67;1.67;;;20.90;94.30;;;21.61;78.09;97624.06;5064500;28;20456;-76
2022/06/22 08:09:06;;;;;;;3.23;1.53;;;20.90;94.40;;;21.67;78.03;97631.78;5064914;28;20580;-76
2022/06/22 08:11:42;;;;;;;7.87;1.90;;;21.00;93.70;;;21.73;76.07;97638.69;5061240;28;20448;-76
2022/06/22 08:14:20;;;;;;;3.60;1.73;;;21.00;93.60;;;21.77;74.56;97638.94;5061187;28;20462;-76
2022/06/22 08:16:57;;;;;;;5.77;1.73;;;21.00;93.00;;;21.80;71.07;97633.88;5061788;28;20469;-77
2022/06/22 08:19:31;;;;;;;2.70;1.47;;;21.10;92.10;;;21.85;70.35;97631.22;5064371;28;20441;-76
2022/06/22 08:22:07;;;;;;;3.57;1.90;;;21.10;92.40;;;21.92;70.76;97636.31;5061632;28;20447;-76
2022/06/22 08:24:49;;;;;;;2.63;1.60;;;21.10;92.70;;;21.97;71.41;97630.97;5064471;28;20498;-76
2022/06/22 08:27:22;;;;;;;3.40;1.50;;;21.10;92.90;;;22.00;71.77;97635.75;5062839;28;20502;-76
2022/06/22 08:29:54;;;;;;;3.47;1.83;;;21.20;92.90;;;22.05;71.42;97633.06;5063435;28;20926;-76
2022/06/22 08:32:31;;;;;;;8.57;2.13;;;21.20;93.10;;;22.06;71.24;97632.81;5062434;28;20502;-76
2022/06/22 08:35:11;;;;;;;2.50;1.70;;;21.30;92.70;;;22.10;68.90;97626.94;5063339;28;20806;-76
2022/06/22 08:37:49;;;;;;;2.70;1.73;;;21.40;92.30;;;22.12;68.37;97625.59;5063193;28;20440;-76
2022/06/22 08:40:32;;;;;;;3.83;1.53;;;21.40;92.10;;;22.17;67.60;97617.59;5062990;28;20479;-76
2022/06/22 08:43:20;;;;;;;2.57;1.70;;;21.40;91.80;;;22.18;65.03;97605.84;5062591;28;20507;-76
2022/06/22 08:46:28;;;;;;;5.83;1.90;;;21.50;91.00;;;22.22;64.91;97609.56;5063222;28;20456;-76
2022/06/22 08:49:37;;;;;;;2.97;1.70;;;21.40;91.50;;;22.27;65.01;97611.44;5064625;28;20483;-76
2022/06/22 08:52:25;;;;;;;2.23;1.40;;;21.50;91.60;;;22.32;66.33;97604.22;5062458;28;20472;-76
2022/06/22 08:56:06;;;;;;;3.10;1.83;;;21.50;92.50;;;22.38;67.25;97597.00;5066276;28;20440;-76
2022/06/22 08:59:12;;;;;;;2.83;1.60;;;21.60;92.30;;;22.44;67.50;97593.22;5051336;28;20476;-76
2022/06/22 09:01:58;;;;;;;3.60;1.80;;;21.60;92.50;;;22.50;68.29;97594.78;5066592;28;20449;-76
2022/06/22 09:05:08;;;;;;;8.20;2.00;;;21.60;92.80;;;22.55;68.66;97590.25;5066886;28;20440;-76
2022/06/22 09:08:37;;;;;;;2.63;1.40;;;21.70;93.10;;;22.64;66.37;97605.66;5064828;28;20519;-76
2022/06/22 09:11:35;;;;;;;6.43;1.60;;;21.80;91.50;;;22.71;67.66;97601.66;5067356;28;20466;-76
2022/06/22 09:15:03;;;;;;;3.80;1.67;;;21.90;92.70;;;22.78;67.46;97607.47;5066325;28;20517;-76
2022/06/22 09:17:59;;;;;;;2.23;1.50;;;22.10;92.50;;;22.83;63.02;97604.00;5033034;28;20451;-76
2022/06/22 09:20:51;;;;;;;3.00;1.70;;;22.00;91.10;;;22.91;62.63;97606.06;5066444;28;20440;-76
2022/06/22 09:23:33;;;;;;;2.97;1.87;;;22.10;91.20;;;23.00;62.79;97609.75;5059642;28;20444;-76
2022/06/22 09:26:20;;;;;;;4.40;1.93;;;22.20;91.00;;;23.05;64.14;97610.50;5061355;28;20433;-76
2022/06/22 09:28:59;;;;;;;3.73;1.70;;;22.30;91.80;;;23.12;64.24;97614.75;5061068;28;20499;-76
2022/06/22 09:32:15;;;;;;;2.13;1.67;;;22.30;91.90;;;23.18;63.60;97625.09;5059820;28;20535;-76
2022/06/22 09:35:09;;;;;;;3.50;1.70;;;22.40;91.70;;;23.25;61.55;97612.22;5058695;28;20452;-76
2022/06/22 09:38:13;;;;;;;2.73;1.60;;;22.50;90.20;;;23.29;62.26;97618.59;5060213;28;20445;-76
2022/06/22 09:40:55;;;;;;;2.67;1.50;;;22.60;91.20;;;23.36;63.18;97608.38;5064034;28;20817;-76
2022/06/22 09:44:05;;;;;;;2.47;1.80;;;22.70;91.50;;;23.38;58.28;97608.91;5066723;28;20482;-76
2022/06/22 09:47:14;;;;;;;4.27;1.40;;;22.80;89.80;;;23.39;55.17;97610.53;5065428;28;20456;-76
2022/06/22 09:50:24;;;;;;;7.43;2.00;;;22.80;87.30;;;23.46;56.46;97605.66;5062494;28;20517;-76
2022/06/22 09:53:36;;;;;;;3.57;1.60;;;22.80;88.50;;;23.50;56.37;97609.38;5066227;28;20448;-76
2022/06/22 09:57:07;;;;;;;2.20;1.77;;;22.80;88.90;;;23.57;55.20;97606.38;5038968;28;20523;-76
2022/06/22 10:00:11;;;;;;;5.90;1.70;;;22.80;87.30;;;23.61;54.13;97606.59;5061801;28;20954;-76
2022/06/22 10:03:44;;;;;;;3.93;1.73;;;23.00;86.60;;;23.64;53.38;97606.06;5047638;28;20460;-76
2022/06/22 10:06:46;;;;;;;2.40;1.70;;;23.10;86.30;;;23.70;53.42;97607.59;5066122;28;20475;-76
2022/06/22 10:10:23;;;;;;;4.80;1.50;;;23.10;86.20;;;23.75;52.83;97600.31;5063903;28;21061;-76
2022/06/22 10:13:22;;;;;;;2.00;1.60;;;23.10;85.90;;;23.81;52.48;97603.75;5064028;28;20536;-76
2022/06/22 10:16:13;;;;;;;5.50;2.20;;;23.20;85.20;;;23.87;52.08;97607.97;5064184;28;20492;-76
2022/06/22 10:19:18;;;;;;;2.00;1.40;;;23.30;85.20;;;23.93;51.90;97615.63;5062045;28;20492;-76
2022/06/22 10:22:09;;;;;;;3.00;1.60;;;23.40;85.20;;;24.00;52.40;97607.28;5061463;28;20466;-76
2022/06/22 10:25:34;;;;;;;9.83;2.13;;;23.40;85.90;;;24.05;52.72;97609.91;5066137;28;20492;-76
2022/06/22 10:28:52;;;;;;;2.60;1.53;;;23.50;86.50;;;24.06;52.06;97614.94;5064240;28;20963;-76
2022/06/22 10:31:41;;;;;;;5.27;1.70;;;23.60;85.10;;;24.12;52.22;97610.38;5061437;28;20467;-76
2022/06/22 10:35:02;;;;;;;14.33;2.00;;;23.60;85.70;;;24.18;52.09;97613.78;5063184;28;20985;-76
2022/06/22 10:38:08;;;;;;;4.30;1.63;;;23.60;86.60;;;24.22;52.25;97609.47;5061031;28;20468;-76
2022/06/22 10:48:05;;;;;;;6.20;1.63;;;23.80;84.20;;;24.40;50.88;97622.09;4980956;28;21023;-76
2022/06/22 10:50:48;;;;;;;2.23;1.50;;;23.80;84.70;;;24.50;52.29;97628.09;5065986;28;20990;-77
2022/06/22 10:54:05;;;;;;;3.53;1.80;;;23.90;86.00;;;24.58;51.42;97615.16;5069235;28;20509;-76
2022/06/22 10:57:06;;;;;;;3.80;1.90;;;24.00;85.80;;;24.68;52.24;97623.06;5067858;28;20528;-76
2022/06/22 11:00:12;;;;;;;2.63;1.60;;;24.10;86.00;;;24.74;50.81;97621.91;5067472;28;20487;-77
2022/06/22 11:03:26;;;;;;;2.17;1.73;;;24.00;84.10;;;24.87;50.55;97621.22;5065654;28;20962;-76
2022/06/22 11:06:45;;;;;;;2.20;1.70;;;24.30;84.80;;;24.99;50.51;97624.28;5068482;28;20505;-76
2022/06/22 11:09:38;;;;;;;2.93;2.13;;;24.40;84.40;;;25.11;49.74;97627.28;5068627;28;21193;-76
2022/06/22 11:12:48;;;;;;;4.03;2.10;;;24.60;84.10;;;25.19;48.69;97615.94;5067737;28;20930;-76
2022/06/22 11:16:19;;;;;;;3.20;1.50;;;24.70;83.20;;;25.25;49.15;97612.09;5068599;28;20464;-76
2022/06/22 11:19:22;;;;;;;2.47;1.77;;;24.80;83.30;;;25.33;49.36;97614.09;5064145;28;20833;-76
2022/06/22 11:22:24;;;;;;;2.30;1.80;;;24.90;83.90;;;25.39;49.93;97609.44;5068107;28;20463;-76
2022/06/22 11:32:28;;;;;;;4.20;1.93;;;25.00;82.90;;;25.61;49.94;97608.84;5067102;28;20910;-76
2022/06/22 11:35:46;;;;;;;5.20;1.93;;;25.00;85.00;;;25.69;51.60;97613.50;5068201;28;20455;-76
2022/06/22 11:39:05;;;;;;;2.40;1.70;;;25.10;85.30;;;25.77;50.54;97610.97;5065260;28;20453;-76
2022/06/22 11:42:00;;;;;;;2.07;1.80;;;25.20;85.00;;;25.78;49.62;97603.72;5066081;28;20505;-77
2022/06/22 11:48:45;;;;;;;2.83;2.00;;;25.30;84.00;;;25.96;50.19;97605.53;5067974;28;20482;-77
2022/06/22 11:51:39;;;;;;;5.97;2.50;;;25.30;85.60;;;25.99;48.72;97607.63;5054436;28;20455;-77
2022/06/22 11:54:55;;;;;;;5.53;2.40;;;25.40;83.30;;;26.03;49.52;97606.72;5063996;28;20508;-77
2022/06/22 11:58:15;;;;;;;1.70;1.50;;;25.40;83.90;;;26.09;50.31;97610.09;5067625;28;20468;-77